Dickens, NE (69132)

3:18 PM CDT on March 24, 2017 (GMT -0500)
Sagebrush | | Change Station

Elev 3018 ft 41.06 °N, 100.76 °W | Updated 3 seconds ago

Rain
Rain
43.3 °F
Feels Like 35 °F
N
18.6
Wind Variable Wind from NNE
Gusts 22.4 mph

Today
High -- | Low -- °F
--% Chance of Precip.
Yesterday
High -- | Low -- °F
Precip. -- in
Pressure 29.98 in
Visibility 10.0 miles
Clouds Mostly Cloudy 1600 ft
Mostly Cloudy 2100 ft
Overcast 7000 ft
Windchill 35 °F
Dew Point 43 °F
Humidity 98%
Rainfall 0.43 in
Snow Depth Not available.
7:40 AM 8:00 PM
Waning Crescent, 13% visible
METAR KLBF 241953Z AUTO 03025G37KT 10SM BKN016 BKN021 OVC070 08/04 A2998 RMK AO2 PK WND 03038/1943 RAB23E32 SLP152 P0000 T00780039
Pressure 29.98 in
Visibility 10.0 miles
Clouds Mostly Cloudy 1600 ft
Mostly Cloudy 2100 ft
Overcast 7000 ft
Windchill 35 °F
Dew Point 43 °F
Humidity 98%
Rainfall 0.43 in
Snow Depth Not available.
7:40 AM 8:00 PM
Waning Crescent, 13% visible
METAR KLBF 241953Z AUTO 03025G37KT 10SM BKN016 BKN021 OVC070 08/04 A2998 RMK AO2 PK WND 03038/1943 RAB23E32 SLP152 P0000 T00780039

Get Severe Weather Alerts

Thanks for signing up!

Be on the lookout for a verification email in your inbox.

You'll start receiving the daily forecast at 8 AM.

×

10-Day Weather Forecast

Almanac

Astronomy

Mar. 24, 2017 Rise Set
Actual Time
Civil Twilight
Nautical Twilight
Astronomical Twilight
Moon
Length of Visible Light
Length of Day
Tomorrow will be .
, % of the Moon is Illuminated

Today's Extremes

State Highs State Lows

Community

WunderPhotos

Upload Photos

1,962,540 photos uploaded!

WunderBlog® & News

Nearby

Air Quality

  Air Quality AQ Index Pollutant
Not available.

Snow Depth

Station Depth Elevation

Earthquake Activity

City Distance Mag. Time & Date
Minimum magnitude displayed is 2.5.

Earthquake Activity

City Distance Mag. Time & Date
Minimum magnitude displayed is 2.5.

Coastal Water Temperatures

Place Temperature

Stations

Nearby Weather Stations

Station Location Temp. Windchill Dew Point Humidity Wind Precip. Elev Updated Type
                   

Watches & Warnings

There are currently no watches in effect.